sensor_id;sensor_type;location;lat;lon;timestamp;P1;durP1;ratioP1;P2;durP2;ratioP2
20462;SDS011;10390;53.566;9.980;2024-01-30T00:01:35;6.53;;;5.45;;
20462;SDS011;10390;53.566;9.980;2024-01-30T00:04:01;5.82;;;5.10;;
20462;SDS011;10390;53.566;9.980;2024-01-30T00:06:27;6.28;;;4.82;;
20462;SDS011;10390;53.566;9.980;2024-01-30T00:08:53;4.95;;;4.25;;
20462;SDS011;10390;53.566;9.980;2024-01-30T00:11:18;5.57;;;4.80;;
20462;SDS011;10390;53.566;9.980;2024-01-30T00:13:44;6.32;;;4.60;;
20462;SDS011;10390;53.566;9.980;2024-01-30T00:16:19;5.28;;;4.45;;
20462;SDS011;10390;53.566;9.980;2024-01-30T00:18:52;5.07;;;4.32;;
20462;SDS011;10390;53.566;9.980;2024-01-30T00:21:18;6.03;;;4.53;;
20462;SDS011;10390;53.566;9.980;2024-01-30T00:23:44;5.38;;;4.55;;
20462;SDS011;10390;53.566;9.980;2024-01-30T00:26:10;5.07;;;4.47;;
20462;SDS011;10390;53.566;9.980;2024-01-30T00:28:36;6.68;;;4.68;;
20462;SDS011;10390;53.566;9.980;2024-01-30T00:31:05;6.05;;;4.20;;
20462;SDS011;10390;53.566;9.980;2024-01-30T00:33:31;5.85;;;4.60;;
20462;SDS011;10390;53.566;9.980;2024-01-30T00:35:57;5.45;;;4.25;;
20462;SDS011;10390;53.566;9.980;2024-01-30T00:38:22;5.45;;;4.80;;
20462;SDS011;10390;53.566;9.980;2024-01-30T00:40:48;5.05;;;4.38;;
20462;SDS011;10390;53.566;9.980;2024-01-30T00:43:14;5.28;;;4.53;;
20462;SDS011;10390;53.566;9.980;2024-01-30T00:45:40;5.38;;;4.50;;
20462;SDS011;10390;53.566;9.980;2024-01-30T00:48:06;5.78;;;5.18;;
20462;SDS011;10390;53.566;9.980;2024-01-30T00:50:31;6.07;;;4.88;;
20462;SDS011;10390;53.566;9.980;2024-01-30T00:52:57;5.53;;;4.70;;
20462;SDS011;10390;53.566;9.980;2024-01-30T00:55:22;5.80;;;5.03;;
20462;SDS011;10390;53.566;9.980;2024-01-30T00:57:48;5.30;;;4.80;;
20462;SDS011;10390;53.566;9.980;2024-01-30T01:00:14;6.03;;;4.93;;
20462;SDS011;10390;53.566;9.980;2024-01-30T01:02:42;6.28;;;4.70;;
20462;SDS011;10390;53.566;9.980;2024-01-30T01:05:08;6.25;;;4.55;;
20462;SDS011;10390;53.566;9.980;2024-01-30T01:07:34;5.13;;;4.60;;
20462;SDS011;10390;53.566;9.980;2024-01-30T01:09:59;5.57;;;4.95;;
20462;SDS011;10390;53.566;9.980;2024-01-30T01:12:25;6.15;;;4.85;;
20462;SDS011;10390;53.566;9.980;2024-01-30T01:14:51;5.85;;;4.55;;
20462;SDS011;10390;53.566;9.980;2024-01-30T01:17:16;5.97;;;5.13;;
20462;SDS011;10390;53.566;9.980;2024-01-30T01:19:43;5.38;;;4.40;;
20462;SDS011;10390;53.566;9.980;2024-01-30T01:22:09;5.35;;;4.75;;
20462;SDS011;10390;53.566;9.980;2024-01-30T01:24:35;6.65;;;4.97;;
20462;SDS011;10390;53.566;9.980;2024-01-30T01:27:01;6.13;;;4.90;;
20462;SDS011;10390;53.566;9.980;2024-01-30T01:29:27;5.25;;;4.75;;
20462;SDS011;10390;53.566;9.980;2024-01-30T01:31:55;5.93;;;4.95;;
20462;SDS011;10390;53.566;9.980;2024-01-30T01:34:21;6.68;;;5.60;;
20462;SDS011;10390;53.566;9.980;2024-01-30T01:36:48;5.85;;;5.22;;
20462;SDS011;10390;53.566;9.980;2024-01-30T01:39:13;5.47;;;4.63;;
20462;SDS011;10390;53.566;9.980;2024-01-30T01:41:39;6.53;;;5.10;;
20462;SDS011;10390;53.566;9.980;2024-01-30T01:44:04;6.38;;;5.30;;
20462;SDS011;10390;53.566;9.980;2024-01-30T01:46:30;6.03;;;5.10;;
20462;SDS011;10390;53.566;9.980;2024-01-30T01:48:58;5.18;;;4.68;;
20462;SDS011;10390;53.566;9.980;2024-01-30T01:51:24;5.90;;;5.30;;
20462;SDS011;10390;53.566;9.980;2024-01-30T01:53:53;5.53;;;5.03;;
20462;SDS011;10390;53.566;9.980;2024-01-30T01:56:21;6.00;;;5.00;;
20462;SDS011;10390;53.566;9.980;2024-01-30T01:58:51;5.60;;;5.00;;
20462;SDS011;10390;53.566;9.980;2024-01-30T02:01:20;5.53;;;4.97;;
20462;SDS011;10390;53.566;9.980;2024-01-30T02:03:46;5.20;;;4.70;;
20462;SDS011;10390;53.566;9.980;2024-01-30T02:06:15;5.70;;;4.60;;
20462;SDS011;10390;53.566;9.980;2024-01-30T02:08:42;5.88;;;4.75;;
20462;SDS011;10390;53.566;9.980;2024-01-30T02:11:07;5.30;;;4.80;;
20462;SDS011;10390;53.566;9.980;2024-01-30T02:13:35;5.55;;;4.80;;
20462;SDS011;10390;53.566;9.980;2024-01-30T02:16:00;6.10;;;4.88;;
20462;SDS011;10390;53.566;9.980;2024-01-30T02:18:26;6.07;;;5.00;;
20462;SDS011;10390;53.566;9.980;2024-01-30T02:20:54;5.82;;;5.00;;
20462;SDS011;10390;53.566;9.980;2024-01-30T02:23:24;5.63;;;4.93;;
20462;SDS011;10390;53.566;9.980;2024-01-30T02:25:52;6.28;;;4.95;;
20462;SDS011;10390;53.566;9.980;2024-01-30T02:28:18;6.05;;;5.18;;
20462;SDS011;10390;53.566;9.980;2024-01-30T02:30:44;5.68;;;5.07;;
20462;SDS011;10390;53.566;9.980;2024-01-30T02:33:10;6.00;;;5.00;;
20462;SDS011;10390;53.566;9.980;2024-01-30T02:35:36;5.38;;;4.70;;
20462;SDS011;10390;53.566;9.980;2024-01-30T02:38:02;5.50;;;4.90;;
20462;SDS011;10390;53.566;9.980;2024-01-30T02:40:28;5.38;;;4.88;;
20462;SDS011;10390;53.566;9.980;2024-01-30T02:42:53;6.05;;;4.93;;
20462;SDS011;10390;53.566;9.980;2024-01-30T02:45:19;5.30;;;4.80;;
20462;SDS011;10390;53.566;9.980;2024-01-30T02:47:45;5.72;;;4.85;;
20462;SDS011;10390;53.566;9.980;2024-01-30T02:50:11;5.57;;;4.60;;
20462;SDS011;10390;53.566;9.980;2024-01-30T02:52:36;5.90;;;5.18;;
20462;SDS011;10390;53.566;9.980;2024-01-30T02:55:02;5.50;;;4.70;;
20462;SDS011;10390;53.566;9.980;2024-01-30T02:57:28;5.10;;;4.60;;
20462;SDS011;10390;53.566;9.980;2024-01-30T02:59:54;5.38;;;4.80;;
20462;SDS011;10390;53.566;9.980;2024-01-30T03:02:20;5.65;;;4.43;;
20462;SDS011;10390;53.566;9.980;2024-01-30T03:04:45;5.30;;;4.72;;
20462;SDS011;10390;53.566;9.980;2024-01-30T03:07:11;5.57;;;4.97;;
20462;SDS011;10390;53.566;9.980;2024-01-30T03:09:37;5.47;;;4.82;;
20462;SDS011;10390;53.566;9.980;2024-01-30T03:12:03;5.22;;;4.60;;
20462;SDS011;10390;53.566;9.980;2024-01-30T03:14:32;5.45;;;4.85;;
20462;SDS011;10390;53.566;9.980;2024-01-30T03:16:58;5.38;;;4.85;;
20462;SDS011;10390;53.566;9.980;2024-01-30T03:19:23;5.63;;;4.78;;
20462;SDS011;10390;53.566;9.980;2024-01-30T03:21:49;5.65;;;5.07;;
20462;SDS011;10390;53.566;9.980;2024-01-30T03:24:16;5.47;;;4.97;;
20462;SDS011;10390;53.566;9.980;2024-01-30T03:26:42;6.03;;;5.35;;
20462;SDS011;10390;53.566;9.980;2024-01-30T03:29:08;5.30;;;4.80;;
20462;SDS011;10390;53.566;9.980;2024-01-30T03:31:33;5.53;;;5.00;;
20462;SDS011;10390;53.566;9.980;2024-01-30T03:33:59;5.35;;;4.75;;
20462;SDS011;10390;53.566;9.980;2024-01-30T03:36:26;5.60;;;4.72;;
20462;SDS011;10390;53.566;9.980;2024-01-30T03:38:51;5.72;;;4.97;;
20462;SDS011;10390;53.566;9.980;2024-01-30T03:41:17;5.10;;;4.60;;
20462;SDS011;10390;53.566;9.980;2024-01-30T03:43:42;5.43;;;4.72;;
20462;SDS011;10390;53.566;9.980;2024-01-30T03:46:08;6.18;;;5.30;;
20462;SDS011;10390;53.566;9.980;2024-01-30T03:48:36;5.30;;;4.80;;
20462;SDS011;10390;53.566;9.980;2024-01-30T03:51:02;6.18;;;4.57;;
20462;SDS011;10390;53.566;9.980;2024-01-30T03:53:27;6.20;;;4.63;;
20462;SDS011;10390;53.566;9.980;2024-01-30T03:55:53;5.70;;;4.90;;
20462;SDS011;10390;53.566;9.980;2024-01-30T03:58:18;5.57;;;4.45;;
20462;SDS011;10390;53.566;9.980;2024-01-30T04:00:44;5.20;;;4.70;;
20462;SDS011;10390;53.566;9.980;2024-01-30T04:03:10;5.97;;;5.20;;
20462;SDS011;10390;53.566;9.980;2024-01-30T04:05:35;5.97;;;5.38;;
20462;SDS011;10390;53.566;9.980;2024-01-30T04:08:01;5.57;;;4.97;;
20462;SDS011;10390;53.566;9.980;2024-01-30T04:10:26;5.28;;;4.78;;
20462;SDS011;10390;53.566;9.980;2024-01-30T04:12:52;6.28;;;5.68;;
20462;SDS011;10390;53.566;9.980;2024-01-30T04:15:19;5.30;;;4.80;;
20462;SDS011;10390;53.566;9.980;2024-01-30T04:17:44;6.57;;;5.05;;
20462;SDS011;10390;53.566;9.980;2024-01-30T04:20:13;5.97;;;5.20;;
20462;SDS011;10390;53.566;9.980;2024-01-30T04:22:43;5.45;;;4.95;;
20462;SDS011;10390;53.566;9.980;2024-01-30T04:25:09;5.18;;;4.68;;
20462;SDS011;10390;53.566;9.980;2024-01-30T04:27:35;5.55;;;4.97;;
20462;SDS011;10390;53.566;9.980;2024-01-30T04:30:01;5.25;;;4.70;;
20462;SDS011;10390;53.566;9.980;2024-01-30T04:32:27;5.72;;;5.13;;
20462;SDS011;10390;53.566;9.980;2024-01-30T04:34:52;5.53;;;4.50;;
20462;SDS011;10390;53.566;9.980;2024-01-30T04:37:18;5.78;;;4.85;;
20462;SDS011;10390;53.566;9.980;2024-01-30T04:39:43;6.25;;;5.32;;
20462;SDS011;10390;53.566;9.980;2024-01-30T04:42:09;5.43;;;4.90;;
20462;SDS011;10390;53.566;9.980;2024-01-30T04:44:35;5.47;;;4.82;;
20462;SDS011;10390;53.566;9.980;2024-01-30T04:47:00;5.60;;;5.00;;
20462;SDS011;10390;53.566;9.980;2024-01-30T04:49:26;5.03;;;4.53;;
20462;SDS011;10390;53.566;9.980;2024-01-30T04:51:52;6.63;;;4.70;;
20462;SDS011;10390;53.566;9.980;2024-01-30T04:54:18;5.50;;;4.85;;
20462;SDS011;10390;53.566;9.980;2024-01-30T04:56:44;5.50;;;5.00;;
20462;SDS011;10390;53.566;9.980;2024-01-30T04:59:09;6.00;;;5.40;;
20462;SDS011;10390;53.566;9.980;2024-01-30T05:01:35;6.13;;;5.53;;
20462;SDS011;10390;53.566;9.980;2024-01-30T05:04:00;5.50;;;4.90;;
20462;SDS011;10390;53.566;9.980;2024-01-30T05:06:27;4.95;;;4.45;;
20462;SDS011;10390;53.566;9.980;2024-01-30T05:08:53;5.45;;;4.43;;
20462;SDS011;10390;53.566;9.980;2024-01-30T05:11:18;5.95;;;4.90;;
20462;SDS011;10390;53.566;9.980;2024-01-30T05:13:44;5.80;;;5.20;;
20462;SDS011;10390;53.566;9.980;2024-01-30T05:16:10;6.38;;;5.72;;
20462;SDS011;10390;53.566;9.980;2024-01-30T05:18:35;6.32;;;5.72;;
20462;SDS011;10390;53.566;9.980;2024-01-30T05:21:02;5.70;;;5.00;;
20462;SDS011;10390;53.566;9.980;2024-01-30T05:23:28;5.40;;;4.85;;
20462;SDS011;10390;53.566;9.980;2024-01-30T05:25:54;5.28;;;4.78;;
20462;SDS011;10390;53.566;9.980;2024-01-30T05:28:19;5.80;;;5.30;;
20462;SDS011;10390;53.566;9.980;2024-01-30T05:30:45;5.60;;;5.00;;
20462;SDS011;10390;53.566;9.980;2024-01-30T05:33:10;5.30;;;4.80;;
20462;SDS011;10390;53.566;9.980;2024-01-30T05:35:37;5.60;;;5.00;;
20462;SDS011;10390;53.566;9.980;2024-01-30T05:38:03;5.30;;;4.80;;
20462;SDS011;10390;53.566;9.980;2024-01-30T05:40:29;5.47;;;4.97;;
20462;SDS011;10390;53.566;9.980;2024-01-30T05:42:55;5.68;;;5.07;;
20462;SDS011;10390;53.566;9.980;2024-01-30T05:45:21;5.45;;;4.68;;
20462;SDS011;10390;53.566;9.980;2024-01-30T05:47:48;5.20;;;4.70;;
20462;SDS011;10390;53.566;9.980;2024-01-30T05:50:13;6.65;;;5.20;;
20462;SDS011;10390;53.566;9.980;2024-01-30T05:52:39;5.78;;;5.18;;
20462;SDS011;10390;53.566;9.980;2024-01-30T05:55:05;7.10;;;6.20;;
20462;SDS011;10390;53.566;9.980;2024-01-30T05:57:31;5.70;;;5.13;;
20462;SDS011;10390;53.566;9.980;2024-01-30T05:59:56;5.85;;;5.15;;
20462;SDS011;10390;53.566;9.980;2024-01-30T06:02:22;9.95;;;5.22;;
20462;SDS011;10390;53.566;9.980;2024-01-30T06:04:48;6.18;;;5.50;;
20462;SDS011;10390;53.566;9.980;2024-01-30T06:07:14;5.95;;;5.35;;
20462;SDS011;10390;53.566;9.980;2024-01-30T06:09:39;6.38;;;5.43;;
20462;SDS011;10390;53.566;9.980;2024-01-30T06:12:05;6.25;;;5.45;;
20462;SDS011;10390;53.566;9.980;2024-01-30T06:14:31;7.68;;;6.00;;
20462;SDS011;10390;53.566;9.980;2024-01-30T06:16:58;7.30;;;5.70;;
20462;SDS011;10390;53.566;9.980;2024-01-30T06:19:24;7.72;;;6.13;;
20462;SDS011;10390;53.566;9.980;2024-01-30T06:21:49;11.60;;;6.93;;
20462;SDS011;10390;53.566;9.980;2024-01-30T06:24:15;10.35;;;5.78;;
20462;SDS011;10390;53.566;9.980;2024-01-30T06:26:40;11.40;;;6.03;;
20462;SDS011;10390;53.566;9.980;2024-01-30T06:29:06;9.30;;;6.57;;
20462;SDS011;10390;53.566;9.980;2024-01-30T06:31:32;8.20;;;5.90;;
20462;SDS011;10390;53.566;9.980;2024-01-30T06:33:58;7.82;;;6.22;;
20462;SDS011;10390;53.566;9.980;2024-01-30T06:36:23;7.22;;;6.18;;
20462;SDS011;10390;53.566;9.980;2024-01-30T06:38:49;13.27;;;6.82;;
20462;SDS011;10390;53.566;9.980;2024-01-30T06:41:15;11.48;;;5.72;;
20462;SDS011;10390;53.566;9.980;2024-01-30T06:43:40;8.52;;;6.18;;
20462;SDS011;10390;53.566;9.980;2024-01-30T06:46:06;11.32;;;5.80;;
20462;SDS011;10390;53.566;9.980;2024-01-30T06:48:32;11.23;;;6.47;;
20462;SDS011;10390;53.566;9.980;2024-01-30T06:50:57;10.77;;;6.68;;
20462;SDS011;10390;53.566;9.980;2024-01-30T06:53:23;10.95;;;5.88;;
20462;SDS011;10390;53.566;9.980;2024-01-30T06:55:49;8.70;;;5.70;;
20462;SDS011;10390;53.566;9.980;2024-01-30T06:58:15;10.18;;;6.22;;
20462;SDS011;10390;53.566;9.980;2024-01-30T07:00:40;11.45;;;6.40;;
20462;SDS011;10390;53.566;9.980;2024-01-30T07:03:06;8.30;;;5.75;;
20462;SDS011;10390;53.566;9.980;2024-01-30T07:05:32;9.70;;;6.07;;
20462;SDS011;10390;53.566;9.980;2024-01-30T07:07:58;8.25;;;5.88;;
20462;SDS011;10390;53.566;9.980;2024-01-30T07:10:23;8.45;;;6.18;;
20462;SDS011;10390;53.566;9.980;2024-01-30T07:12:49;6.50;;;5.50;;
20462;SDS011;10390;53.566;9.980;2024-01-30T07:15:14;7.95;;;5.50;;
20462;SDS011;10390;53.566;9.980;2024-01-30T07:17:44;7.20;;;5.97;;
20462;SDS011;10390;53.566;9.980;2024-01-30T07:20:10;9.07;;;6.13;;
20462;SDS011;10390;53.566;9.980;2024-01-30T07:22:36;8.40;;;5.80;;
20462;SDS011;10390;53.566;9.980;2024-01-30T07:25:01;12.02;;;6.32;;
20462;SDS011;10390;53.566;9.980;2024-01-30T07:27:27;7.55;;;5.97;;
20462;SDS011;10390;53.566;9.980;2024-01-30T07:29:53;6.85;;;5.70;;
20462;SDS011;10390;53.566;9.980;2024-01-30T07:32:18;10.05;;;6.40;;
20462;SDS011;10390;53.566;9.980;2024-01-30T07:34:44;7.35;;;6.50;;
20462;SDS011;10390;53.566;9.980;2024-01-30T07:37:10;8.95;;;5.88;;
20462;SDS011;10390;53.566;9.980;2024-01-30T07:39:37;6.82;;;5.93;;
20462;SDS011;10390;53.566;9.980;2024-01-30T07:42:03;7.35;;;5.55;;
20462;SDS011;10390;53.566;9.980;2024-01-30T07:44:29;7.88;;;5.88;;
20462;SDS011;10390;53.566;9.980;2024-01-30T07:46:55;8.45;;;5.88;;
20462;SDS011;10390;53.566;9.980;2024-01-30T07:49:20;7.40;;;6.15;;
20462;SDS011;10390;53.566;9.980;2024-01-30T07:51:46;8.43;;;6.28;;
20462;SDS011;10390;53.566;9.980;2024-01-30T07:54:11;8.52;;;6.07;;
20462;SDS011;10390;53.566;9.980;2024-01-30T07:56:38;6.93;;;6.10;;
20462;SDS011;10390;53.566;9.980;2024-01-30T07:59:03;9.43;;;5.45;;
20462;SDS011;10390;53.566;9.980;2024-01-30T08:01:29;5.88;;;5.10;;
20462;SDS011;10390;53.566;9.980;2024-01-30T08:03:55;8.55;;;5.38;;
20462;SDS011;10390;53.566;9.980;2024-01-30T08:06:20;5.78;;;5.10;;
20462;SDS011;10390;53.566;9.980;2024-01-30T08:08:46;7.15;;;5.80;;
20462;SDS011;10390;53.566;9.980;2024-01-30T08:11:11;7.13;;;5.68;;
20462;SDS011;10390;53.566;9.980;2024-01-30T08:13:37;8.57;;;6.07;;
20462;SDS011;10390;53.566;9.980;2024-01-30T08:16:03;9.07;;;5.60;;
20462;SDS011;10390;53.566;9.980;2024-01-30T08:18:29;9.55;;;5.57;;
20462;SDS011;10390;53.566;9.980;2024-01-30T08:20:55;10.38;;;6.38;;
20462;SDS011;10390;53.566;9.980;2024-01-30T08:23:20;8.73;;;6.63;;
20462;SDS011;10390;53.566;9.980;2024-01-30T08:25:46;7.97;;;6.22;;
20462;SDS011;10390;53.566;9.980;2024-01-30T08:28:11;8.07;;;6.43;;
20462;SDS011;10390;53.566;9.980;2024-01-30T08:30:37;8.70;;;6.53;;
20462;SDS011;10390;53.566;9.980;2024-01-30T08:33:04;6.53;;;5.57;;
20462;SDS011;10390;53.566;9.980;2024-01-30T08:35:30;7.88;;;6.00;;
20462;SDS011;10390;53.566;9.980;2024-01-30T08:37:58;8.73;;;6.03;;
20462;SDS011;10390;53.566;9.980;2024-01-30T08:40:24;7.20;;;5.60;;
20462;SDS011;10390;53.566;9.980;2024-01-30T08:42:49;6.20;;;5.60;;
20462;SDS011;10390;53.566;9.980;2024-01-30T08:45:15;7.10;;;5.60;;
20462;SDS011;10390;53.566;9.980;2024-01-30T08:47:41;7.55;;;6.15;;
20462;SDS011;10390;53.566;9.980;2024-01-30T08:50:06;5.75;;;5.15;;
20462;SDS011;10390;53.566;9.980;2024-01-30T08:52:32;8.70;;;5.45;;
20462;SDS011;10390;53.566;9.980;2024-01-30T08:54:59;7.55;;;5.80;;
20462;SDS011;10390;53.566;9.980;2024-01-30T08:57:25;6.63;;;5.78;;
20462;SDS011;10390;53.566;9.980;2024-01-30T08:59:53;6.70;;;5.78;;
20462;SDS011;10390;53.566;9.980;2024-01-30T09:02:19;6.72;;;4.95;;
20462;SDS011;10390;53.566;9.980;2024-01-30T09:04:45;8.57;;;5.90;;
20462;SDS011;10390;53.566;9.980;2024-01-30T09:07:10;7.15;;;5.70;;
20462;SDS011;10390;53.566;9.980;2024-01-30T09:09:37;6.10;;;5.50;;
20462;SDS011;10390;53.566;9.980;2024-01-30T09:12:04;7.00;;;6.13;;
20462;SDS011;10390;53.566;9.980;2024-01-30T09:14:33;6.43;;;5.65;;
20462;SDS011;10390;53.566;9.980;2024-01-30T09:16:58;6.95;;;5.55;;
20462;SDS011;10390;53.566;9.980;2024-01-30T09:19:24;7.00;;;5.68;;
20462;SDS011;10390;53.566;9.980;2024-01-30T09:21:50;6.68;;;5.55;;
20462;SDS011;10390;53.566;9.980;2024-01-30T09:24:15;7.30;;;5.75;;
20462;SDS011;10390;53.566;9.980;2024-01-30T09:26:41;8.07;;;5.20;;
20462;SDS011;10390;53.566;9.980;2024-01-30T09:29:08;6.15;;;5.35;;
20462;SDS011;10390;53.566;9.980;2024-01-30T09:31:33;6.20;;;5.30;;
20462;SDS011;10390;53.566;9.980;2024-01-30T09:33:59;6.90;;;5.10;;
20462;SDS011;10390;53.566;9.980;2024-01-30T09:36:24;7.15;;;6.10;;
20462;SDS011;10390;53.566;9.980;2024-01-30T09:38:50;6.53;;;5.82;;
20462;SDS011;10390;53.566;9.980;2024-01-30T09:41:16;7.10;;;6.40;;
20462;SDS011;10390;53.566;9.980;2024-01-30T09:43:44;6.68;;;6.00;;
20462;SDS011;10390;53.566;9.980;2024-01-30T09:46:16;5.70;;;5.00;;
20462;SDS011;10390;53.566;9.980;2024-01-30T09:48:48;6.25;;;4.85;;
20462;SDS011;10390;53.566;9.980;2024-01-30T09:51:15;5.90;;;5.18;;
20462;SDS011;10390;53.566;9.980;2024-01-30T09:53:42;5.47;;;4.70;;
20462;SDS011;10390;53.566;9.980;2024-01-30T09:56:08;6.47;;;5.05;;
20462;SDS011;10390;53.566;9.980;2024-01-30T09:58:34;6.40;;;5.72;;
20462;SDS011;10390;53.566;9.980;2024-01-30T10:01:00;5.53;;;4.95;;
20462;SDS011;10390;53.566;9.980;2024-01-30T10:03:25;5.70;;;4.60;;
20462;SDS011;10390;53.566;9.980;2024-01-30T10:05:52;6.18;;;5.22;;
20462;SDS011;10390;53.566;9.980;2024-01-30T10:08:17;5.78;;;4.85;;
20462;SDS011;10390;53.566;9.980;2024-01-30T10:10:47;7.03;;;5.80;;
20462;SDS011;10390;53.566;9.980;2024-01-30T10:13:15;6.13;;;5.63;;
20462;SDS011;10390;53.566;9.980;2024-01-30T10:15:41;6.22;;;5.50;;
20462;SDS011;10390;53.566;9.980;2024-01-30T10:18:07;6.63;;;5.93;;
20462;SDS011;10390;53.566;9.980;2024-01-30T10:20:35;6.55;;;5.88;;
20462;SDS011;10390;53.566;9.980;2024-01-30T10:23:00;5.82;;;5.22;;
20462;SDS011;10390;53.566;9.980;2024-01-30T10:25:26;5.90;;;5.30;;
20462;SDS011;10390;53.566;9.980;2024-01-30T10:27:55;6.07;;;5.47;;
20462;SDS011;10390;53.566;9.980;2024-01-30T10:30:21;5.93;;;5.30;;
20462;SDS011;10390;53.566;9.980;2024-01-30T10:32:47;6.43;;;5.78;;
20462;SDS011;10390;53.566;9.980;2024-01-30T10:35:13;6.47;;;5.50;;
20462;SDS011;10390;53.566;9.980;2024-01-30T10:37:39;6.25;;;5.65;;
20462;SDS011;10390;53.566;9.980;2024-01-30T10:40:05;6.88;;;5.88;;
20462;SDS011;10390;53.566;9.980;2024-01-30T10:42:33;6.47;;;5.40;;
20462;SDS011;10390;53.566;9.980;2024-01-30T10:45:14;5.90;;;5.25;;
20462;SDS011;10390;53.566;9.980;2024-01-30T10:47:42;6.38;;;5.15;;
20462;SDS011;10390;53.566;9.980;2024-01-30T10:50:13;5.88;;;5.20;;
20462;SDS011;10390;53.566;9.980;2024-01-30T10:52:39;6.75;;;6.15;;
20462;SDS011;10390;53.566;9.980;2024-01-30T10:55:07;6.45;;;5.85;;
20462;SDS011;10390;53.566;9.980;2024-01-30T10:57:36;7.93;;;6.38;;
20462;SDS011;10390;53.566;9.980;2024-01-30T11:00:12;5.32;;;4.82;;
20462;SDS011;10390;53.566;9.980;2024-01-30T11:02:41;5.72;;;5.00;;
20462;SDS011;10390;53.566;9.980;2024-01-30T11:05:08;5.57;;;4.93;;
20462;SDS011;10390;53.566;9.980;2024-01-30T11:07:35;6.10;;;5.50;;
20462;SDS011;10390;53.566;9.980;2024-01-30T11:10:02;5.93;;;5.22;;
20462;SDS011;10390;53.566;9.980;2024-01-30T11:12:32;5.97;;;5.35;;
20462;SDS011;10390;53.566;9.980;2024-01-30T11:17:43;5.50;;;4.95;;
20462;SDS011;10390;53.566;9.980;2024-01-30T11:22:46;6.82;;;6.20;;
20462;SDS011;10390;53.566;9.980;2024-01-30T11:25:14;5.95;;;5.35;;
20462;SDS011;10390;53.566;9.980;2024-01-30T11:27:45;6.53;;;5.93;;
20462;SDS011;10390;53.566;9.980;2024-01-30T11:30:20;6.15;;;5.57;;
20462;SDS011;10390;53.566;9.980;2024-01-30T11:33:09;5.43;;;4.63;;
20462;SDS011;10390;53.566;9.980;2024-01-30T11:35:36;5.60;;;5.10;;
20462;SDS011;10390;53.566;9.980;2024-01-30T11:38:07;5.85;;;5.35;;
20462;SDS011;10390;53.566;9.980;2024-01-30T11:40:34;5.63;;;5.10;;
20462;SDS011;10390;53.566;9.980;2024-01-30T11:43:03;5.93;;;5.35;;
20462;SDS011;10390;53.566;9.980;2024-01-30T11:45:29;5.38;;;4.70;;
20462;SDS011;10390;53.566;9.980;2024-01-30T11:47:56;5.32;;;4.78;;
20462;SDS011;10390;53.566;9.980;2024-01-30T11:50:22;6.20;;;4.63;;
20462;SDS011;10390;53.566;9.980;2024-01-30T11:52:49;6.05;;;5.45;;
20462;SDS011;10390;53.566;9.980;2024-01-30T11:55:15;5.53;;;5.00;;
20462;SDS011;10390;53.566;9.980;2024-01-30T11:57:41;6.10;;;5.50;;
20462;SDS011;10390;53.566;9.980;2024-01-30T12:00:18;6.22;;;5.07;;
20462;SDS011;10390;53.566;9.980;2024-01-30T12:02:44;5.68;;;5.18;;
20462;SDS011;10390;53.566;9.980;2024-01-30T12:05:20;5.72;;;5.22;;
20462;SDS011;10390;53.566;9.980;2024-01-30T12:07:47;5.60;;;5.10;;
20462;SDS011;10390;53.566;9.980;2024-01-30T12:10:13;5.65;;;5.10;;
20462;SDS011;10390;53.566;9.980;2024-01-30T12:12:39;6.28;;;5.68;;
20462;SDS011;10390;53.566;9.980;2024-01-30T12:15:07;5.50;;;4.90;;
20462;SDS011;10390;53.566;9.980;2024-01-30T12:17:33;6.28;;;5.32;;
20462;SDS011;10390;53.566;9.980;2024-01-30T12:20:04;5.60;;;5.10;;
20462;SDS011;10390;53.566;9.980;2024-01-30T12:22:32;5.80;;;4.93;;
20462;SDS011;10390;53.566;9.980;2024-01-30T12:24:58;5.38;;;4.68;;
20462;SDS011;10390;53.566;9.980;2024-01-30T12:27:25;5.78;;;5.05;;
20462;SDS011;10390;53.566;9.980;2024-01-30T12:29:55;5.55;;;4.95;;
20462;SDS011;10390;53.566;9.980;2024-01-30T12:32:22;5.63;;;5.13;;
20462;SDS011;10390;53.566;9.980;2024-01-30T12:34:48;5.30;;;4.80;;
20462;SDS011;10390;53.566;9.980;2024-01-30T12:37:13;5.40;;;4.90;;
20462;SDS011;10390;53.566;9.980;2024-01-30T12:39:43;5.10;;;4.60;;
20462;SDS011;10390;53.566;9.980;2024-01-30T12:42:09;5.35;;;4.85;;
20462;SDS011;10390;53.566;9.980;2024-01-30T12:44:35;5.53;;;4.78;;
20462;SDS011;10390;53.566;9.980;2024-01-30T12:47:02;5.32;;;4.82;;
20462;SDS011;10390;53.566;9.980;2024-01-30T12:49:28;4.70;;;4.20;;
20462;SDS011;10390;53.566;9.980;2024-01-30T12:51:54;5.70;;;5.10;;
20462;SDS011;10390;53.566;9.980;2024-01-30T12:54:20;5.75;;;4.45;;
20462;SDS011;10390;53.566;9.980;2024-01-30T12:56:45;5.53;;;5.00;;
20462;SDS011;10390;53.566;9.980;2024-01-30T12:59:11;4.85;;;4.35;;
20462;SDS011;10390;53.566;9.980;2024-01-30T13:01:36;5.20;;;4.60;;
20462;SDS011;10390;53.566;9.980;2024-01-30T13:04:02;5.53;;;5.00;;
20462;SDS011;10390;53.566;9.980;2024-01-30T13:06:28;5.30;;;4.80;;
20462;SDS011;10390;53.566;9.980;2024-01-30T13:08:53;4.53;;;3.95;;
20462;SDS011;10390;53.566;9.980;2024-01-30T13:11:19;6.53;;;4.40;;
20462;SDS011;10390;53.566;9.980;2024-01-30T13:13:45;5.55;;;4.80;;
20462;SDS011;10390;53.566;9.980;2024-01-30T13:16:10;5.10;;;4.60;;
20462;SDS011;10390;53.566;9.980;2024-01-30T13:18:36;5.20;;;4.45;;
20462;SDS011;10390;53.566;9.980;2024-01-30T13:21:01;5.00;;;4.45;;
20462;SDS011;10390;53.566;9.980;2024-01-30T13:23:28;5.32;;;4.82;;
20462;SDS011;10390;53.566;9.980;2024-01-30T13:25:53;5.50;;;5.00;;
20462;SDS011;10390;53.566;9.980;2024-01-30T13:28:22;5.70;;;5.10;;
20462;SDS011;10390;53.566;9.980;2024-01-30T13:30:48;5.63;;;5.10;;
20462;SDS011;10390;53.566;9.980;2024-01-30T13:33:13;5.60;;;5.10;;
20462;SDS011;10390;53.566;9.980;2024-01-30T13:35:39;4.80;;;4.30;;
20462;SDS011;10390;53.566;9.980;2024-01-30T13:38:05;5.55;;;5.05;;
20462;SDS011;10390;53.566;9.980;2024-01-30T13:40:30;4.82;;;4.30;;
20462;SDS011;10390;53.566;9.980;2024-01-30T13:42:56;5.03;;;4.35;;
20462;SDS011;10390;53.566;9.980;2024-01-30T13:45:21;4.50;;;3.90;;
20462;SDS011;10390;53.566;9.980;2024-01-30T13:47:47;4.53;;;4.00;;
20462;SDS011;10390;53.566;9.980;2024-01-30T13:50:13;5.70;;;4.43;;
20462;SDS011;10390;53.566;9.980;2024-01-30T13:52:40;4.72;;;4.20;;
20462;SDS011;10390;53.566;9.980;2024-01-30T13:55:06;4.65;;;4.05;;
20462;SDS011;10390;53.566;9.980;2024-01-30T13:57:32;4.80;;;4.30;;
20462;SDS011;10390;53.566;9.980;2024-01-30T14:00:00;4.80;;;4.28;;
20462;SDS011;10390;53.566;9.980;2024-01-30T14:02:30;5.43;;;4.30;;
20462;SDS011;10390;53.566;9.980;2024-01-30T14:04:55;4.25;;;3.85;;
20462;SDS011;10390;53.566;9.980;2024-01-30T14:07:21;5.00;;;4.43;;
20462;SDS011;10390;53.566;9.980;2024-01-30T14:09:47;4.70;;;4.07;;
20462;SDS011;10390;53.566;9.980;2024-01-30T14:12:14;4.95;;;3.83;;
20462;SDS011;10390;53.566;9.980;2024-01-30T14:14:40;5.20;;;4.68;;
20462;SDS011;10390;53.566;9.980;2024-01-30T14:17:06;4.60;;;3.85;;
20462;SDS011;10390;53.566;9.980;2024-01-30T14:19:32;4.63;;;3.78;;
20462;SDS011;10390;53.566;9.980;2024-01-30T14:21:59;4.85;;;4.35;;
20462;SDS011;10390;53.566;9.980;2024-01-30T14:24:24;4.60;;;3.60;;
20462;SDS011;10390;53.566;9.980;2024-01-30T14:26:50;4.70;;;4.20;;
20462;SDS011;10390;53.566;9.980;2024-01-30T14:29:16;4.43;;;3.90;;
20462;SDS011;10390;53.566;9.980;2024-01-30T14:31:41;4.90;;;4.03;;
20462;SDS011;10390;53.566;9.980;2024-01-30T14:34:07;4.70;;;4.13;;
20462;SDS011;10390;53.566;9.980;2024-01-30T14:36:33;4.50;;;3.55;;
20462;SDS011;10390;53.566;9.980;2024-01-30T14:38:59;4.50;;;3.97;;
20462;SDS011;10390;53.566;9.980;2024-01-30T14:41:24;4.60;;;3.83;;
20462;SDS011;10390;53.566;9.980;2024-01-30T14:43:50;4.60;;;4.10;;
20462;SDS011;10390;53.566;9.980;2024-01-30T14:46:16;4.50;;;4.05;;
20462;SDS011;10390;53.566;9.980;2024-01-30T14:48:42;5.03;;;4.18;;